<?xml version="1.0" encoding="UTF-8" standalone="no" ?>
<gpx xmlns="http://www.topografix.com/GPX/1/1" xmlns:xsi="http://www.w3.org/2001/XMLSchema-instance" xsi:schemaLocation="http://www.topografix.com/GPX/1/1 http://www.topografix.com/GPX/1/1/gpx.xsd" version="1.1" creator="VisuGPX - https://www.visugpx.com">
  <metadata>
    <name>La Colombine</name>
  </metadata>
  <trk>
    <name><![CDATA[13128304-La Colombine]]></name>
    <extensions>
      <line xmlns="http://www.topografix.com/GPX/gpx_style/0/2">
        <color>0000FF</color>
        <width>4</width>
      </line>
    </extensions>
    <trkseg>
      <trkpt lat="46.87709" lon="6.26942">
        <ele>836</ele>
        <time>2022-08-10T09:10:39Z</time>
      </trkpt>
      <trkpt lat="46.87716" lon="6.26957">
        <ele>836</ele>
        <time>2022-08-10T09:10:42Z</time>
      </trkpt>
      <trkpt lat="46.87731" lon="6.27066">
        <ele>835</ele>
        <time>2022-08-10T09:11:00Z</time>
      </trkpt>
      <trkpt lat="46.87748" lon="6.27162">
        <ele>833</ele>
        <time>2022-08-10T09:11:15Z</time>
      </trkpt>
      <trkpt lat="46.87743" lon="6.27173">
        <ele>833</ele>
        <time>2022-08-10T09:11:18Z</time>
      </trkpt>
      <trkpt lat="46.87723" lon="6.27193">
        <ele>834</ele>
        <time>2022-08-10T09:11:23Z</time>
      </trkpt>
      <trkpt lat="46.87722" lon="6.27199">
        <ele>834</ele>
        <time>2022-08-10T09:11:24Z</time>
      </trkpt>
      <trkpt lat="46.87739" lon="6.27243">
        <ele>833</ele>
        <time>2022-08-10T09:11:32Z</time>
      </trkpt>
      <trkpt lat="46.87739" lon="6.27265">
        <ele>833</ele>
        <time>2022-08-10T09:11:36Z</time>
      </trkpt>
      <trkpt lat="46.87677" lon="6.27388">
        <ele>836</ele>
        <time>2022-08-10T09:12:00Z</time>
      </trkpt>
      <trkpt lat="46.87645" lon="6.27436">
        <ele>835</ele>
        <time>2022-08-10T09:12:11Z</time>
      </trkpt>
      <trkpt lat="46.87638" lon="6.27495">
        <ele>833</ele>
        <time>2022-08-10T09:12:20Z</time>
      </trkpt>
      <trkpt lat="46.87613" lon="6.27589">
        <ele>836</ele>
        <time>2022-08-10T09:12:37Z</time>
      </trkpt>
      <trkpt lat="46.87597" lon="6.27641">
        <ele>838</ele>
        <time>2022-08-10T09:12:46Z</time>
      </trkpt>
      <trkpt lat="46.87577" lon="6.2767">
        <ele>841</ele>
        <time>2022-08-10T09:12:52Z</time>
      </trkpt>
      <trkpt lat="46.87564" lon="6.27675">
        <ele>842</ele>
        <time>2022-08-10T09:12:55Z</time>
      </trkpt>
      <trkpt lat="46.87508" lon="6.27657">
        <ele>845</ele>
        <time>2022-08-10T09:13:09Z</time>
      </trkpt>
      <trkpt lat="46.87489" lon="6.27645">
        <ele>847</ele>
        <time>2022-08-10T09:13:14Z</time>
      </trkpt>
      <trkpt lat="46.87429" lon="6.2758">
        <ele>854</ele>
        <time>2022-08-10T09:13:31Z</time>
      </trkpt>
      <trkpt lat="46.87388" lon="6.27476">
        <ele>856</ele>
        <time>2022-08-10T09:13:50Z</time>
      </trkpt>
      <trkpt lat="46.87374" lon="6.27425">
        <ele>857</ele>
        <time>2022-08-10T09:13:59Z</time>
      </trkpt>
      <trkpt lat="46.87345" lon="6.27382">
        <ele>861</ele>
        <time>2022-08-10T09:14:09Z</time>
      </trkpt>
      <trkpt lat="46.87331" lon="6.27366">
        <ele>864</ele>
        <time>2022-08-10T09:14:13Z</time>
      </trkpt>
      <trkpt lat="46.87312" lon="6.27373">
        <ele>869</ele>
        <time>2022-08-10T09:14:17Z</time>
      </trkpt>
      <trkpt lat="46.87293" lon="6.27408">
        <ele>874</ele>
        <time>2022-08-10T09:14:24Z</time>
      </trkpt>
      <trkpt lat="46.87287" lon="6.27487">
        <ele>873</ele>
        <time>2022-08-10T09:14:37Z</time>
      </trkpt>
      <trkpt lat="46.87274" lon="6.27521">
        <ele>875</ele>
        <time>2022-08-10T09:14:43Z</time>
      </trkpt>
      <trkpt lat="46.87236" lon="6.27565">
        <ele>882</ele>
        <time>2022-08-10T09:14:55Z</time>
      </trkpt>
      <trkpt lat="46.87222" lon="6.27599">
        <ele>887</ele>
        <time>2022-08-10T09:15:01Z</time>
      </trkpt>
      <trkpt lat="46.87212" lon="6.27603">
        <ele>889</ele>
        <time>2022-08-10T09:15:03Z</time>
      </trkpt>
      <trkpt lat="46.872" lon="6.27596">
        <ele>891</ele>
        <time>2022-08-10T09:15:06Z</time>
      </trkpt>
      <trkpt lat="46.87176" lon="6.27599">
        <ele>897</ele>
        <time>2022-08-10T09:15:12Z</time>
      </trkpt>
      <trkpt lat="46.87161" lon="6.27593">
        <ele>900</ele>
        <time>2022-08-10T09:15:16Z</time>
      </trkpt>
      <trkpt lat="46.8714" lon="6.27541">
        <ele>906</ele>
        <time>2022-08-10T09:15:25Z</time>
      </trkpt>
      <trkpt lat="46.87138" lon="6.27543">
        <ele>907</ele>
        <time>2022-08-10T09:15:26Z</time>
      </trkpt>
      <trkpt lat="46.87133" lon="6.27536">
        <ele>908</ele>
        <time>2022-08-10T09:15:28Z</time>
      </trkpt>
      <trkpt lat="46.87129" lon="6.27525">
        <ele>910</ele>
        <time>2022-08-10T09:15:30Z</time>
      </trkpt>
      <trkpt lat="46.87077" lon="6.27486">
        <ele>924</ele>
        <time>2022-08-10T09:15:43Z</time>
      </trkpt>
      <trkpt lat="46.87061" lon="6.27485">
        <ele>926</ele>
        <time>2022-08-10T09:15:47Z</time>
      </trkpt>
      <trkpt lat="46.8703" lon="6.275">
        <ele>931</ele>
        <time>2022-08-10T09:15:55Z</time>
      </trkpt>
      <trkpt lat="46.86996" lon="6.27497">
        <ele>936</ele>
        <time>2022-08-10T09:16:03Z</time>
      </trkpt>
      <trkpt lat="46.86977" lon="6.27508">
        <ele>937</ele>
        <time>2022-08-10T09:16:07Z</time>
      </trkpt>
      <trkpt lat="46.86961" lon="6.27526">
        <ele>937</ele>
        <time>2022-08-10T09:16:12Z</time>
      </trkpt>
      <trkpt lat="46.86941" lon="6.27535">
        <ele>937</ele>
        <time>2022-08-10T09:16:17Z</time>
      </trkpt>
      <trkpt lat="46.86923" lon="6.27536">
        <ele>938</ele>
        <time>2022-08-10T09:16:21Z</time>
      </trkpt>
      <trkpt lat="46.86888" lon="6.27519">
        <ele>942</ele>
        <time>2022-08-10T09:16:30Z</time>
      </trkpt>
      <trkpt lat="46.86866" lon="6.27484">
        <ele>946</ele>
        <time>2022-08-10T09:16:37Z</time>
      </trkpt>
      <trkpt lat="46.86834" lon="6.2745">
        <ele>950</ele>
        <time>2022-08-10T09:16:47Z</time>
      </trkpt>
      <trkpt lat="46.86823" lon="6.27444">
        <ele>950</ele>
        <time>2022-08-10T09:16:49Z</time>
      </trkpt>
      <trkpt lat="46.86805" lon="6.27448">
        <ele>950</ele>
        <time>2022-08-10T09:16:54Z</time>
      </trkpt>
      <trkpt lat="46.86786" lon="6.27458">
        <ele>950</ele>
        <time>2022-08-10T09:16:58Z</time>
      </trkpt>
      <trkpt lat="46.86761" lon="6.27486">
        <ele>950</ele>
        <time>2022-08-10T09:17:06Z</time>
      </trkpt>
      <trkpt lat="46.86709" lon="6.27531">
        <ele>955</ele>
        <time>2022-08-10T09:17:20Z</time>
      </trkpt>
      <trkpt lat="46.86686" lon="6.27534">
        <ele>958</ele>
        <time>2022-08-10T09:17:25Z</time>
      </trkpt>
      <trkpt lat="46.86661" lon="6.27551">
        <ele>961</ele>
        <time>2022-08-10T09:17:32Z</time>
      </trkpt>
      <trkpt lat="46.86631" lon="6.2756">
        <ele>961</ele>
        <time>2022-08-10T09:17:39Z</time>
      </trkpt>
      <trkpt lat="46.86589" lon="6.27582">
        <ele>960</ele>
        <time>2022-08-10T09:17:49Z</time>
      </trkpt>
      <trkpt lat="46.86546" lon="6.27589">
        <ele>957</ele>
        <time>2022-08-10T09:17:59Z</time>
      </trkpt>
      <trkpt lat="46.86513" lon="6.27609">
        <ele>954</ele>
        <time>2022-08-10T09:18:08Z</time>
      </trkpt>
      <trkpt lat="46.86487" lon="6.27634">
        <ele>954</ele>
        <time>2022-08-10T09:18:15Z</time>
      </trkpt>
      <trkpt lat="46.86441" lon="6.27642">
        <ele>956</ele>
        <time>2022-08-10T09:18:26Z</time>
      </trkpt>
      <trkpt lat="46.86429" lon="6.27651">
        <ele>957</ele>
        <time>2022-08-10T09:18:29Z</time>
      </trkpt>
      <trkpt lat="46.86406" lon="6.27694">
        <ele>956</ele>
        <time>2022-08-10T09:18:38Z</time>
      </trkpt>
      <trkpt lat="46.86409" lon="6.27718">
        <ele>953</ele>
        <time>2022-08-10T09:18:41Z</time>
      </trkpt>
      <trkpt lat="46.86433" lon="6.27778">
        <ele>947</ele>
        <time>2022-08-10T09:18:53Z</time>
      </trkpt>
      <trkpt lat="46.8645" lon="6.27799">
        <ele>945</ele>
        <time>2022-08-10T09:18:58Z</time>
      </trkpt>
      <trkpt lat="46.86468" lon="6.27811">
        <ele>943</ele>
        <time>2022-08-10T09:19:02Z</time>
      </trkpt>
      <trkpt lat="46.86475" lon="6.27824">
        <ele>942</ele>
        <time>2022-08-10T09:19:05Z</time>
      </trkpt>
      <trkpt lat="46.8646" lon="6.27834">
        <ele>941</ele>
        <time>2022-08-10T09:19:09Z</time>
      </trkpt>
      <trkpt lat="46.86455" lon="6.27844">
        <ele>942</ele>
        <time>2022-08-10T09:19:11Z</time>
      </trkpt>
      <trkpt lat="46.86387" lon="6.27861">
        <ele>944</ele>
        <time>2022-08-10T09:19:27Z</time>
      </trkpt>
      <trkpt lat="46.86373" lon="6.27874">
        <ele>946</ele>
        <time>2022-08-10T09:19:31Z</time>
      </trkpt>
      <trkpt lat="46.86356" lon="6.27867">
        <ele>946</ele>
        <time>2022-08-10T09:19:35Z</time>
      </trkpt>
      <trkpt lat="46.86311" lon="6.27873">
        <ele>951</ele>
        <time>2022-08-10T09:19:45Z</time>
      </trkpt>
      <trkpt lat="46.86288" lon="6.27853">
        <ele>953</ele>
        <time>2022-08-10T09:19:52Z</time>
      </trkpt>
      <trkpt lat="46.86242" lon="6.27847">
        <ele>958</ele>
        <time>2022-08-10T09:20:02Z</time>
      </trkpt>
      <trkpt lat="46.8596" lon="6.28036">
        <ele>983</ele>
        <time>2022-08-10T09:21:15Z</time>
      </trkpt>
      <trkpt lat="46.85942" lon="6.28061">
        <ele>982</ele>
        <time>2022-08-10T09:21:21Z</time>
      </trkpt>
      <trkpt lat="46.85892" lon="6.28069">
        <ele>987</ele>
        <time>2022-08-10T09:21:32Z</time>
      </trkpt>
      <trkpt lat="46.85879" lon="6.28084">
        <ele>988</ele>
        <time>2022-08-10T09:21:36Z</time>
      </trkpt>
      <trkpt lat="46.85854" lon="6.28096">
        <ele>991</ele>
        <time>2022-08-10T09:21:42Z</time>
      </trkpt>
      <trkpt lat="46.8585" lon="6.28105">
        <ele>992</ele>
        <time>2022-08-10T09:21:44Z</time>
      </trkpt>
      <trkpt lat="46.85857" lon="6.28136">
        <ele>989</ele>
        <time>2022-08-10T09:21:49Z</time>
      </trkpt>
      <trkpt lat="46.85883" lon="6.28197">
        <ele>985</ele>
        <time>2022-08-10T09:22:01Z</time>
      </trkpt>
      <trkpt lat="46.85882" lon="6.28235">
        <ele>984</ele>
        <time>2022-08-10T09:22:07Z</time>
      </trkpt>
      <trkpt lat="46.85867" lon="6.28277">
        <ele>985</ele>
        <time>2022-08-10T09:22:15Z</time>
      </trkpt>
      <trkpt lat="46.85837" lon="6.2831">
        <ele>988</ele>
        <time>2022-08-10T09:22:23Z</time>
      </trkpt>
      <trkpt lat="46.85836" lon="6.28324">
        <ele>989</ele>
        <time>2022-08-10T09:22:26Z</time>
      </trkpt>
      <trkpt lat="46.85817" lon="6.28354">
        <ele>991</ele>
        <time>2022-08-10T09:22:32Z</time>
      </trkpt>
      <trkpt lat="46.85782" lon="6.28389">
        <ele>994</ele>
        <time>2022-08-10T09:22:42Z</time>
      </trkpt>
      <trkpt lat="46.85773" lon="6.28393">
        <ele>995</ele>
        <time>2022-08-10T09:22:44Z</time>
      </trkpt>
      <trkpt lat="46.85735" lon="6.28363">
        <ele>999</ele>
        <time>2022-08-10T09:22:54Z</time>
      </trkpt>
      <trkpt lat="46.85707" lon="6.28346">
        <ele>1001</ele>
        <time>2022-08-10T09:23:01Z</time>
      </trkpt>
      <trkpt lat="46.85701" lon="6.28322">
        <ele>1002</ele>
        <time>2022-08-10T09:23:05Z</time>
      </trkpt>
      <trkpt lat="46.85674" lon="6.28297">
        <ele>1004</ele>
        <time>2022-08-10T09:23:13Z</time>
      </trkpt>
      <trkpt lat="46.85659" lon="6.28256">
        <ele>1004</ele>
        <time>2022-08-10T09:23:20Z</time>
      </trkpt>
      <trkpt lat="46.85647" lon="6.28241">
        <ele>1005</ele>
        <time>2022-08-10T09:23:24Z</time>
      </trkpt>
      <trkpt lat="46.85647" lon="6.2823">
        <ele>1005</ele>
        <time>2022-08-10T09:23:26Z</time>
      </trkpt>
      <trkpt lat="46.85608" lon="6.28175">
        <ele>1006</ele>
        <time>2022-08-10T09:23:38Z</time>
      </trkpt>
      <trkpt lat="46.85582" lon="6.28163">
        <ele>1006</ele>
        <time>2022-08-10T09:23:45Z</time>
      </trkpt>
      <trkpt lat="46.85576" lon="6.28166">
        <ele>1006</ele>
        <time>2022-08-10T09:23:46Z</time>
      </trkpt>
      <trkpt lat="46.85558" lon="6.28191">
        <ele>1007</ele>
        <time>2022-08-10T09:23:52Z</time>
      </trkpt>
      <trkpt lat="46.85553" lon="6.28192">
        <ele>1008</ele>
        <time>2022-08-10T09:23:53Z</time>
      </trkpt>
      <trkpt lat="46.85542" lon="6.28188">
        <ele>1008</ele>
        <time>2022-08-10T09:23:56Z</time>
      </trkpt>
      <trkpt lat="46.85528" lon="6.28173">
        <ele>1007</ele>
        <time>2022-08-10T09:24:00Z</time>
      </trkpt>
      <trkpt lat="46.85513" lon="6.28171">
        <ele>1007</ele>
        <time>2022-08-10T09:24:03Z</time>
      </trkpt>
      <trkpt lat="46.8549" lon="6.28195">
        <ele>1010</ele>
        <time>2022-08-10T09:24:10Z</time>
      </trkpt>
      <trkpt lat="46.85485" lon="6.2819">
        <ele>1010</ele>
        <time>2022-08-10T09:24:11Z</time>
      </trkpt>
      <trkpt lat="46.85426" lon="6.28217">
        <ele>1016</ele>
        <time>2022-08-10T09:24:26Z</time>
      </trkpt>
      <trkpt lat="46.85406" lon="6.2824">
        <ele>1017</ele>
        <time>2022-08-10T09:24:32Z</time>
      </trkpt>
      <trkpt lat="46.85392" lon="6.28239">
        <ele>1017</ele>
        <time>2022-08-10T09:24:35Z</time>
      </trkpt>
      <trkpt lat="46.85376" lon="6.28249">
        <ele>1018</ele>
        <time>2022-08-10T09:24:39Z</time>
      </trkpt>
      <trkpt lat="46.8537" lon="6.28263">
        <ele>1018</ele>
        <time>2022-08-10T09:24:42Z</time>
      </trkpt>
      <trkpt lat="46.85372" lon="6.28272">
        <ele>1018</ele>
        <time>2022-08-10T09:24:43Z</time>
      </trkpt>
      <trkpt lat="46.85376" lon="6.28287">
        <ele>1018</ele>
        <time>2022-08-10T09:24:46Z</time>
      </trkpt>
      <trkpt lat="46.85386" lon="6.28293">
        <ele>1018</ele>
        <time>2022-08-10T09:24:48Z</time>
      </trkpt>
      <trkpt lat="46.85375" lon="6.28299">
        <ele>1019</ele>
        <time>2022-08-10T09:24:51Z</time>
      </trkpt>
      <trkpt lat="46.85396" lon="6.28317">
        <ele>1019</ele>
        <time>2022-08-10T09:24:57Z</time>
      </trkpt>
      <trkpt lat="46.85387" lon="6.28332">
        <ele>1019</ele>
        <time>2022-08-10T09:25:00Z</time>
      </trkpt>
      <trkpt lat="46.85372" lon="6.28336">
        <ele>1019</ele>
        <time>2022-08-10T09:25:04Z</time>
      </trkpt>
      <trkpt lat="46.85344" lon="6.28327">
        <ele>1020</ele>
        <time>2022-08-10T09:25:10Z</time>
      </trkpt>
      <trkpt lat="46.8531" lon="6.28356">
        <ele>1018</ele>
        <time>2022-08-10T09:25:19Z</time>
      </trkpt>
      <trkpt lat="46.85304" lon="6.28339">
        <ele>1019</ele>
        <time>2022-08-10T09:25:23Z</time>
      </trkpt>
      <trkpt lat="46.85292" lon="6.28346">
        <ele>1018</ele>
        <time>2022-08-10T09:25:26Z</time>
      </trkpt>
      <trkpt lat="46.85272" lon="6.28341">
        <ele>1017</ele>
        <time>2022-08-10T09:25:30Z</time>
      </trkpt>
      <trkpt lat="46.85314" lon="6.28261">
        <ele>1019</ele>
        <time>2022-08-10T09:25:46Z</time>
      </trkpt>
      <trkpt lat="46.8533" lon="6.28217">
        <ele>1021</ele>
        <time>2022-08-10T09:25:54Z</time>
      </trkpt>
      <trkpt lat="46.85329" lon="6.28187">
        <ele>1023</ele>
        <time>2022-08-10T09:25:59Z</time>
      </trkpt>
      <trkpt lat="46.85322" lon="6.28167">
        <ele>1024</ele>
        <time>2022-08-10T09:26:03Z</time>
      </trkpt>
      <trkpt lat="46.85312" lon="6.28165">
        <ele>1025</ele>
        <time>2022-08-10T09:26:05Z</time>
      </trkpt>
      <trkpt lat="46.85293" lon="6.2817">
        <ele>1025</ele>
        <time>2022-08-10T09:26:10Z</time>
      </trkpt>
      <trkpt lat="46.85275" lon="6.28182">
        <ele>1024</ele>
        <time>2022-08-10T09:26:14Z</time>
      </trkpt>
      <trkpt lat="46.85252" lon="6.2818">
        <ele>1025</ele>
        <time>2022-08-10T09:26:20Z</time>
      </trkpt>
      <trkpt lat="46.85239" lon="6.28185">
        <ele>1024</ele>
        <time>2022-08-10T09:26:23Z</time>
      </trkpt>
      <trkpt lat="46.85208" lon="6.28187">
        <ele>1022</ele>
        <time>2022-08-10T09:26:30Z</time>
      </trkpt>
      <trkpt lat="46.85196" lon="6.28183">
        <ele>1022</ele>
        <time>2022-08-10T09:26:33Z</time>
      </trkpt>
      <trkpt lat="46.85183" lon="6.28149">
        <ele>1023</ele>
        <time>2022-08-10T09:26:39Z</time>
      </trkpt>
      <trkpt lat="46.85168" lon="6.28134">
        <ele>1023</ele>
        <time>2022-08-10T09:26:43Z</time>
      </trkpt>
      <trkpt lat="46.85143" lon="6.28133">
        <ele>1021</ele>
        <time>2022-08-10T09:26:49Z</time>
      </trkpt>
      <trkpt lat="46.85113" lon="6.28146">
        <ele>1018</ele>
        <time>2022-08-10T09:26:56Z</time>
      </trkpt>
      <trkpt lat="46.85052" lon="6.28138">
        <ele>1013</ele>
        <time>2022-08-10T09:27:11Z</time>
      </trkpt>
      <trkpt lat="46.8503" lon="6.28144">
        <ele>1011</ele>
        <time>2022-08-10T09:27:16Z</time>
      </trkpt>
      <trkpt lat="46.85002" lon="6.28123">
        <ele>1010</ele>
        <time>2022-08-10T09:27:23Z</time>
      </trkpt>
      <trkpt lat="46.84992" lon="6.28109">
        <ele>1011</ele>
        <time>2022-08-10T09:27:27Z</time>
      </trkpt>
      <trkpt lat="46.84975" lon="6.281">
        <ele>1011</ele>
        <time>2022-08-10T09:27:31Z</time>
      </trkpt>
      <trkpt lat="46.84966" lon="6.28098">
        <ele>1011</ele>
        <time>2022-08-10T09:27:33Z</time>
      </trkpt>
      <trkpt lat="46.8494" lon="6.28105">
        <ele>1009</ele>
        <time>2022-08-10T09:27:39Z</time>
      </trkpt>
      <trkpt lat="46.84887" lon="6.28086">
        <ele>1008</ele>
        <time>2022-08-10T09:27:52Z</time>
      </trkpt>
      <trkpt lat="46.84816" lon="6.28041">
        <ele>1005</ele>
        <time>2022-08-10T09:28:10Z</time>
      </trkpt>
      <trkpt lat="46.84742" lon="6.28023">
        <ele>1003</ele>
        <time>2022-08-10T09:28:27Z</time>
      </trkpt>
      <trkpt lat="46.84725" lon="6.28024">
        <ele>1003</ele>
        <time>2022-08-10T09:28:31Z</time>
      </trkpt>
      <trkpt lat="46.84684" lon="6.28048">
        <ele>998</ele>
        <time>2022-08-10T09:28:42Z</time>
      </trkpt>
      <trkpt lat="46.8465" lon="6.28052">
        <ele>995</ele>
        <time>2022-08-10T09:28:50Z</time>
      </trkpt>
      <trkpt lat="46.84629" lon="6.28043">
        <ele>994</ele>
        <time>2022-08-10T09:28:55Z</time>
      </trkpt>
      <trkpt lat="46.8462" lon="6.27988">
        <ele>999</ele>
        <time>2022-08-10T09:29:04Z</time>
      </trkpt>
      <trkpt lat="46.84614" lon="6.27983">
        <ele>998</ele>
        <time>2022-08-10T09:29:05Z</time>
      </trkpt>
      <trkpt lat="46.84608" lon="6.27956">
        <ele>1000</ele>
        <time>2022-08-10T09:29:10Z</time>
      </trkpt>
      <trkpt lat="46.84596" lon="6.27928">
        <ele>1002</ele>
        <time>2022-08-10T09:29:15Z</time>
      </trkpt>
      <trkpt lat="46.84573" lon="6.27898">
        <ele>1001</ele>
        <time>2022-08-10T09:29:22Z</time>
      </trkpt>
      <trkpt lat="46.84565" lon="6.2786">
        <ele>1002</ele>
        <time>2022-08-10T09:29:29Z</time>
      </trkpt>
      <trkpt lat="46.84543" lon="6.27813">
        <ele>1004</ele>
        <time>2022-08-10T09:29:38Z</time>
      </trkpt>
      <trkpt lat="46.84501" lon="6.27742">
        <ele>1006</ele>
        <time>2022-08-10T09:29:53Z</time>
      </trkpt>
      <trkpt lat="46.84489" lon="6.27728">
        <ele>1005</ele>
        <time>2022-08-10T09:29:57Z</time>
      </trkpt>
      <trkpt lat="46.84458" lon="6.27659">
        <ele>1005</ele>
        <time>2022-08-10T09:30:10Z</time>
      </trkpt>
      <trkpt lat="46.84431" lon="6.27637">
        <ele>1004</ele>
        <time>2022-08-10T09:30:17Z</time>
      </trkpt>
      <trkpt lat="46.84426" lon="6.27616">
        <ele>1005</ele>
        <time>2022-08-10T09:30:20Z</time>
      </trkpt>
      <trkpt lat="46.84433" lon="6.27599">
        <ele>1006</ele>
        <time>2022-08-10T09:30:24Z</time>
      </trkpt>
      <trkpt lat="46.84466" lon="6.27575">
        <ele>1009</ele>
        <time>2022-08-10T09:30:32Z</time>
      </trkpt>
      <trkpt lat="46.84538" lon="6.27499">
        <ele>1013</ele>
        <time>2022-08-10T09:30:53Z</time>
      </trkpt>
      <trkpt lat="46.84581" lon="6.27449">
        <ele>1016</ele>
        <time>2022-08-10T09:31:06Z</time>
      </trkpt>
      <trkpt lat="46.84661" lon="6.27388">
        <ele>1021</ele>
        <time>2022-08-10T09:31:27Z</time>
      </trkpt>
      <trkpt lat="46.84679" lon="6.2737">
        <ele>1021</ele>
        <time>2022-08-10T09:31:32Z</time>
      </trkpt>
      <trkpt lat="46.84693" lon="6.27347">
        <ele>1022</ele>
        <time>2022-08-10T09:31:37Z</time>
      </trkpt>
      <trkpt lat="46.847" lon="6.27312">
        <ele>1024</ele>
        <time>2022-08-10T09:31:43Z</time>
      </trkpt>
      <trkpt lat="46.84687" lon="6.27264">
        <ele>1029</ele>
        <time>2022-08-10T09:31:51Z</time>
      </trkpt>
      <trkpt lat="46.84684" lon="6.27225">
        <ele>1030</ele>
        <time>2022-08-10T09:31:57Z</time>
      </trkpt>
      <trkpt lat="46.84659" lon="6.27174">
        <ele>1031</ele>
        <time>2022-08-10T09:32:07Z</time>
      </trkpt>
      <trkpt lat="46.84667" lon="6.27142">
        <ele>1033</ele>
        <time>2022-08-10T09:32:13Z</time>
      </trkpt>
      <trkpt lat="46.84696" lon="6.27117">
        <ele>1035</ele>
        <time>2022-08-10T09:32:21Z</time>
      </trkpt>
      <trkpt lat="46.84731" lon="6.27095">
        <ele>1036</ele>
        <time>2022-08-10T09:32:29Z</time>
      </trkpt>
      <trkpt lat="46.84779" lon="6.27012">
        <ele>1041</ele>
        <time>2022-08-10T09:32:47Z</time>
      </trkpt>
      <trkpt lat="46.84783" lon="6.2699">
        <ele>1042</ele>
        <time>2022-08-10T09:32:50Z</time>
      </trkpt>
      <trkpt lat="46.84784" lon="6.26961">
        <ele>1042</ele>
        <time>2022-08-10T09:32:55Z</time>
      </trkpt>
      <trkpt lat="46.84776" lon="6.26917">
        <ele>1044</ele>
        <time>2022-08-10T09:33:02Z</time>
      </trkpt>
      <trkpt lat="46.84801" lon="6.26862">
        <ele>1041</ele>
        <time>2022-08-10T09:33:13Z</time>
      </trkpt>
      <trkpt lat="46.84807" lon="6.2684">
        <ele>1041</ele>
        <time>2022-08-10T09:33:17Z</time>
      </trkpt>
      <trkpt lat="46.84809" lon="6.26809">
        <ele>1040</ele>
        <time>2022-08-10T09:33:22Z</time>
      </trkpt>
      <trkpt lat="46.84801" lon="6.26763">
        <ele>1039</ele>
        <time>2022-08-10T09:33:29Z</time>
      </trkpt>
      <trkpt lat="46.84802" lon="6.26747">
        <ele>1039</ele>
        <time>2022-08-10T09:33:32Z</time>
      </trkpt>
      <trkpt lat="46.84818" lon="6.26711">
        <ele>1038</ele>
        <time>2022-08-10T09:33:39Z</time>
      </trkpt>
      <trkpt lat="46.84843" lon="6.26688">
        <ele>1037</ele>
        <time>2022-08-10T09:33:46Z</time>
      </trkpt>
      <trkpt lat="46.84869" lon="6.26685">
        <ele>1035</ele>
        <time>2022-08-10T09:33:52Z</time>
      </trkpt>
      <trkpt lat="46.84907" lon="6.26618">
        <ele>1037</ele>
        <time>2022-08-10T09:34:06Z</time>
      </trkpt>
      <trkpt lat="46.84915" lon="6.26551">
        <ele>1041</ele>
        <time>2022-08-10T09:34:16Z</time>
      </trkpt>
      <trkpt lat="46.84906" lon="6.26461">
        <ele>1041</ele>
        <time>2022-08-10T09:34:31Z</time>
      </trkpt>
      <trkpt lat="46.84909" lon="6.2642">
        <ele>1039</ele>
        <time>2022-08-10T09:34:38Z</time>
      </trkpt>
      <trkpt lat="46.84921" lon="6.26331">
        <ele>1036</ele>
        <time>2022-08-10T09:34:52Z</time>
      </trkpt>
      <trkpt lat="46.84917" lon="6.26302">
        <ele>1034</ele>
        <time>2022-08-10T09:34:57Z</time>
      </trkpt>
      <trkpt lat="46.84902" lon="6.26279">
        <ele>1033</ele>
        <time>2022-08-10T09:35:02Z</time>
      </trkpt>
      <trkpt lat="46.84849" lon="6.26264">
        <ele>1031</ele>
        <time>2022-08-10T09:35:14Z</time>
      </trkpt>
      <trkpt lat="46.84818" lon="6.26261">
        <ele>1029</ele>
        <time>2022-08-10T09:35:22Z</time>
      </trkpt>
      <trkpt lat="46.84787" lon="6.26251">
        <ele>1027</ele>
        <time>2022-08-10T09:35:29Z</time>
      </trkpt>
      <trkpt lat="46.84752" lon="6.26272">
        <ele>1028</ele>
        <time>2022-08-10T09:35:38Z</time>
      </trkpt>
      <trkpt lat="46.84732" lon="6.26268">
        <ele>1027</ele>
        <time>2022-08-10T09:35:43Z</time>
      </trkpt>
      <trkpt lat="46.84735" lon="6.26231">
        <ele>1025</ele>
        <time>2022-08-10T09:35:49Z</time>
      </trkpt>
      <trkpt lat="46.84748" lon="6.26171">
        <ele>1022</ele>
        <time>2022-08-10T09:35:59Z</time>
      </trkpt>
      <trkpt lat="46.84757" lon="6.26105">
        <ele>1024</ele>
        <time>2022-08-10T09:36:09Z</time>
      </trkpt>
      <trkpt lat="46.848" lon="6.25955">
        <ele>1027</ele>
        <time>2022-08-10T09:36:35Z</time>
      </trkpt>
      <trkpt lat="46.84815" lon="6.25937">
        <ele>1026</ele>
        <time>2022-08-10T09:36:40Z</time>
      </trkpt>
      <trkpt lat="46.84825" lon="6.25917">
        <ele>1026</ele>
        <time>2022-08-10T09:36:44Z</time>
      </trkpt>
      <trkpt lat="46.84847" lon="6.259">
        <ele>1025</ele>
        <time>2022-08-10T09:36:50Z</time>
      </trkpt>
      <trkpt lat="46.84869" lon="6.25871">
        <ele>1027</ele>
        <time>2022-08-10T09:36:57Z</time>
      </trkpt>
      <trkpt lat="46.84883" lon="6.25779">
        <ele>1033</ele>
        <time>2022-08-10T09:37:12Z</time>
      </trkpt>
      <trkpt lat="46.84877" lon="6.25752">
        <ele>1035</ele>
        <time>2022-08-10T09:37:16Z</time>
      </trkpt>
      <trkpt lat="46.8486" lon="6.25729">
        <ele>1037</ele>
        <time>2022-08-10T09:37:22Z</time>
      </trkpt>
      <trkpt lat="46.84839" lon="6.2572">
        <ele>1039</ele>
        <time>2022-08-10T09:37:27Z</time>
      </trkpt>
      <trkpt lat="46.84821" lon="6.25721">
        <ele>1039</ele>
        <time>2022-08-10T09:37:31Z</time>
      </trkpt>
      <trkpt lat="46.84801" lon="6.2573">
        <ele>1039</ele>
        <time>2022-08-10T09:37:36Z</time>
      </trkpt>
      <trkpt lat="46.84765" lon="6.25766">
        <ele>1037</ele>
        <time>2022-08-10T09:37:46Z</time>
      </trkpt>
      <trkpt lat="46.84733" lon="6.25775">
        <ele>1038</ele>
        <time>2022-08-10T09:37:54Z</time>
      </trkpt>
      <trkpt lat="46.847" lon="6.25779">
        <ele>1040</ele>
        <time>2022-08-10T09:38:01Z</time>
      </trkpt>
      <trkpt lat="46.84671" lon="6.25778">
        <ele>1042</ele>
        <time>2022-08-10T09:38:08Z</time>
      </trkpt>
      <trkpt lat="46.84657" lon="6.25739">
        <ele>1045</ele>
        <time>2022-08-10T09:38:15Z</time>
      </trkpt>
      <trkpt lat="46.84618" lon="6.25693">
        <ele>1050</ele>
        <time>2022-08-10T09:38:27Z</time>
      </trkpt>
      <trkpt lat="46.84604" lon="6.25664">
        <ele>1053</ele>
        <time>2022-08-10T09:38:32Z</time>
      </trkpt>
      <trkpt lat="46.84608" lon="6.25631">
        <ele>1055</ele>
        <time>2022-08-10T09:38:38Z</time>
      </trkpt>
      <trkpt lat="46.84633" lon="6.25591">
        <ele>1057</ele>
        <time>2022-08-10T09:38:47Z</time>
      </trkpt>
      <trkpt lat="46.8464" lon="6.25573">
        <ele>1058</ele>
        <time>2022-08-10T09:38:50Z</time>
      </trkpt>
      <trkpt lat="46.8464" lon="6.25544">
        <ele>1059</ele>
        <time>2022-08-10T09:38:54Z</time>
      </trkpt>
      <trkpt lat="46.84636" lon="6.25526">
        <ele>1060</ele>
        <time>2022-08-10T09:38:57Z</time>
      </trkpt>
      <trkpt lat="46.84625" lon="6.25509">
        <ele>1061</ele>
        <time>2022-08-10T09:39:01Z</time>
      </trkpt>
      <trkpt lat="46.84607" lon="6.25495">
        <ele>1062</ele>
        <time>2022-08-10T09:39:06Z</time>
      </trkpt>
      <trkpt lat="46.84573" lon="6.25495">
        <ele>1062</ele>
        <time>2022-08-10T09:39:14Z</time>
      </trkpt>
      <trkpt lat="46.84559" lon="6.25491">
        <ele>1060</ele>
        <time>2022-08-10T09:39:17Z</time>
      </trkpt>
      <trkpt lat="46.84529" lon="6.25457">
        <ele>1057</ele>
        <time>2022-08-10T09:39:26Z</time>
      </trkpt>
      <trkpt lat="46.84512" lon="6.25397">
        <ele>1054</ele>
        <time>2022-08-10T09:39:36Z</time>
      </trkpt>
      <trkpt lat="46.84512" lon="6.25355">
        <ele>1052</ele>
        <time>2022-08-10T09:39:43Z</time>
      </trkpt>
      <trkpt lat="46.84523" lon="6.25308">
        <ele>1053</ele>
        <time>2022-08-10T09:39:51Z</time>
      </trkpt>
      <trkpt lat="46.84522" lon="6.25271">
        <ele>1053</ele>
        <time>2022-08-10T09:39:57Z</time>
      </trkpt>
      <trkpt lat="46.84497" lon="6.25219">
        <ele>1051</ele>
        <time>2022-08-10T09:40:07Z</time>
      </trkpt>
      <trkpt lat="46.8444" lon="6.25112">
        <ele>1051</ele>
        <time>2022-08-10T09:40:29Z</time>
      </trkpt>
      <trkpt lat="46.84413" lon="6.25075">
        <ele>1050</ele>
        <time>2022-08-10T09:40:37Z</time>
      </trkpt>
      <trkpt lat="46.84377" lon="6.25051">
        <ele>1050</ele>
        <time>2022-08-10T09:40:47Z</time>
      </trkpt>
      <trkpt lat="46.84364" lon="6.25023">
        <ele>1051</ele>
        <time>2022-08-10T09:40:52Z</time>
      </trkpt>
      <trkpt lat="46.84344" lon="6.24995">
        <ele>1052</ele>
        <time>2022-08-10T09:40:59Z</time>
      </trkpt>
      <trkpt lat="46.84327" lon="6.2498">
        <ele>1053</ele>
        <time>2022-08-10T09:41:03Z</time>
      </trkpt>
      <trkpt lat="46.84305" lon="6.24977">
        <ele>1054</ele>
        <time>2022-08-10T09:41:08Z</time>
      </trkpt>
      <trkpt lat="46.84276" lon="6.24992">
        <ele>1054</ele>
        <time>2022-08-10T09:41:16Z</time>
      </trkpt>
      <trkpt lat="46.84244" lon="6.25022">
        <ele>1053</ele>
        <time>2022-08-10T09:41:24Z</time>
      </trkpt>
      <trkpt lat="46.84228" lon="6.25025">
        <ele>1053</ele>
        <time>2022-08-10T09:41:28Z</time>
      </trkpt>
      <trkpt lat="46.84206" lon="6.25025">
        <ele>1053</ele>
        <time>2022-08-10T09:41:33Z</time>
      </trkpt>
      <trkpt lat="46.84177" lon="6.24998">
        <ele>1054</ele>
        <time>2022-08-10T09:41:41Z</time>
      </trkpt>
      <trkpt lat="46.84128" lon="6.24918">
        <ele>1053</ele>
        <time>2022-08-10T09:41:59Z</time>
      </trkpt>
      <trkpt lat="46.84127" lon="6.24899">
        <ele>1053</ele>
        <time>2022-08-10T09:42:02Z</time>
      </trkpt>
      <trkpt lat="46.84134" lon="6.24884">
        <ele>1054</ele>
        <time>2022-08-10T09:42:04Z</time>
      </trkpt>
      <trkpt lat="46.84167" lon="6.24866">
        <ele>1057</ele>
        <time>2022-08-10T09:42:13Z</time>
      </trkpt>
      <trkpt lat="46.84331" lon="6.24723">
        <ele>1084</ele>
        <time>2022-08-10T09:42:57Z</time>
      </trkpt>
      <trkpt lat="46.84343" lon="6.24718">
        <ele>1086</ele>
        <time>2022-08-10T09:43:00Z</time>
      </trkpt>
      <trkpt lat="46.84362" lon="6.24695">
        <ele>1090</ele>
        <time>2022-08-10T09:43:06Z</time>
      </trkpt>
      <trkpt lat="46.84393" lon="6.2468">
        <ele>1094</ele>
        <time>2022-08-10T09:43:14Z</time>
      </trkpt>
      <trkpt lat="46.84422" lon="6.24652">
        <ele>1099</ele>
        <time>2022-08-10T09:43:22Z</time>
      </trkpt>
      <trkpt lat="46.84431" lon="6.24616">
        <ele>1103</ele>
        <time>2022-08-10T09:43:28Z</time>
      </trkpt>
      <trkpt lat="46.84431" lon="6.24594">
        <ele>1105</ele>
        <time>2022-08-10T09:43:31Z</time>
      </trkpt>
      <trkpt lat="46.84419" lon="6.24561">
        <ele>1108</ele>
        <time>2022-08-10T09:43:37Z</time>
      </trkpt>
      <trkpt lat="46.84419" lon="6.2455">
        <ele>1108</ele>
        <time>2022-08-10T09:43:39Z</time>
      </trkpt>
      <trkpt lat="46.84423" lon="6.24521">
        <ele>1110</ele>
        <time>2022-08-10T09:43:44Z</time>
      </trkpt>
      <trkpt lat="46.84443" lon="6.24471">
        <ele>1112</ele>
        <time>2022-08-10T09:43:53Z</time>
      </trkpt>
      <trkpt lat="46.84426" lon="6.24404">
        <ele>1113</ele>
        <time>2022-08-10T09:44:04Z</time>
      </trkpt>
      <trkpt lat="46.84409" lon="6.24374">
        <ele>1113</ele>
        <time>2022-08-10T09:44:11Z</time>
      </trkpt>
      <trkpt lat="46.84401" lon="6.24346">
        <ele>1112</ele>
        <time>2022-08-10T09:44:16Z</time>
      </trkpt>
      <trkpt lat="46.84373" lon="6.24282">
        <ele>1109</ele>
        <time>2022-08-10T09:44:28Z</time>
      </trkpt>
      <trkpt lat="46.84317" lon="6.24194">
        <ele>1108</ele>
        <time>2022-08-10T09:44:47Z</time>
      </trkpt>
      <trkpt lat="46.84288" lon="6.24136">
        <ele>1105</ele>
        <time>2022-08-10T09:44:58Z</time>
      </trkpt>
      <trkpt lat="46.84271" lon="6.24121">
        <ele>1104</ele>
        <time>2022-08-10T09:45:03Z</time>
      </trkpt>
      <trkpt lat="46.84238" lon="6.24074">
        <ele>1102</ele>
        <time>2022-08-10T09:45:14Z</time>
      </trkpt>
      <trkpt lat="46.84196" lon="6.23969">
        <ele>1098</ele>
        <time>2022-08-10T09:45:33Z</time>
      </trkpt>
      <trkpt lat="46.84172" lon="6.23927">
        <ele>1098</ele>
        <time>2022-08-10T09:45:42Z</time>
      </trkpt>
      <trkpt lat="46.84152" lon="6.23907">
        <ele>1097</ele>
        <time>2022-08-10T09:45:48Z</time>
      </trkpt>
      <trkpt lat="46.84138" lon="6.23898">
        <ele>1096</ele>
        <time>2022-08-10T09:45:51Z</time>
      </trkpt>
      <trkpt lat="46.84114" lon="6.23891">
        <ele>1096</ele>
        <time>2022-08-10T09:45:57Z</time>
      </trkpt>
      <trkpt lat="46.84071" lon="6.2392">
        <ele>1094</ele>
        <time>2022-08-10T09:46:08Z</time>
      </trkpt>
      <trkpt lat="46.84055" lon="6.23921">
        <ele>1092</ele>
        <time>2022-08-10T09:46:12Z</time>
      </trkpt>
      <trkpt lat="46.83996" lon="6.23891">
        <ele>1087</ele>
        <time>2022-08-10T09:46:26Z</time>
      </trkpt>
      <trkpt lat="46.83975" lon="6.23873">
        <ele>1084</ele>
        <time>2022-08-10T09:46:32Z</time>
      </trkpt>
      <trkpt lat="46.83958" lon="6.23865">
        <ele>1082</ele>
        <time>2022-08-10T09:46:36Z</time>
      </trkpt>
      <trkpt lat="46.8386" lon="6.2391">
        <ele>1067</ele>
        <time>2022-08-10T09:47:00Z</time>
      </trkpt>
      <trkpt lat="46.83817" lon="6.23947">
        <ele>1062</ele>
        <time>2022-08-10T09:47:12Z</time>
      </trkpt>
      <trkpt lat="46.83797" lon="6.23949">
        <ele>1060</ele>
        <time>2022-08-10T09:47:16Z</time>
      </trkpt>
      <trkpt lat="46.8376" lon="6.23964">
        <ele>1057</ele>
        <time>2022-08-10T09:47:25Z</time>
      </trkpt>
      <trkpt lat="46.83743" lon="6.23966">
        <ele>1056</ele>
        <time>2022-08-10T09:47:29Z</time>
      </trkpt>
      <trkpt lat="46.83729" lon="6.23964">
        <ele>1054</ele>
        <time>2022-08-10T09:47:33Z</time>
      </trkpt>
      <trkpt lat="46.83705" lon="6.2395">
        <ele>1053</ele>
        <time>2022-08-10T09:47:39Z</time>
      </trkpt>
      <trkpt lat="46.83687" lon="6.23936">
        <ele>1052</ele>
        <time>2022-08-10T09:47:43Z</time>
      </trkpt>
      <trkpt lat="46.83677" lon="6.23933">
        <ele>1051</ele>
        <time>2022-08-10T09:47:46Z</time>
      </trkpt>
      <trkpt lat="46.83665" lon="6.23936">
        <ele>1050</ele>
        <time>2022-08-10T09:47:49Z</time>
      </trkpt>
      <trkpt lat="46.83628" lon="6.23935">
        <ele>1050</ele>
        <time>2022-08-10T09:47:57Z</time>
      </trkpt>
      <trkpt lat="46.83575" lon="6.23977">
        <ele>1046</ele>
        <time>2022-08-10T09:48:11Z</time>
      </trkpt>
      <trkpt lat="46.83537" lon="6.23994">
        <ele>1043</ele>
        <time>2022-08-10T09:48:21Z</time>
      </trkpt>
      <trkpt lat="46.83518" lon="6.24017">
        <ele>1041</ele>
        <time>2022-08-10T09:48:26Z</time>
      </trkpt>
      <trkpt lat="46.83497" lon="6.24022">
        <ele>1040</ele>
        <time>2022-08-10T09:48:31Z</time>
      </trkpt>
      <trkpt lat="46.83464" lon="6.2404">
        <ele>1037</ele>
        <time>2022-08-10T09:48:40Z</time>
      </trkpt>
      <trkpt lat="46.83428" lon="6.24045">
        <ele>1034</ele>
        <time>2022-08-10T09:48:48Z</time>
      </trkpt>
      <trkpt lat="46.83388" lon="6.24056">
        <ele>1032</ele>
        <time>2022-08-10T09:48:58Z</time>
      </trkpt>
      <trkpt lat="46.83283" lon="6.2404">
        <ele>1026</ele>
        <time>2022-08-10T09:49:22Z</time>
      </trkpt>
      <trkpt lat="46.83238" lon="6.24048">
        <ele>1025</ele>
        <time>2022-08-10T09:49:33Z</time>
      </trkpt>
      <trkpt lat="46.83212" lon="6.24067">
        <ele>1024</ele>
        <time>2022-08-10T09:49:40Z</time>
      </trkpt>
      <trkpt lat="46.83204" lon="6.24068">
        <ele>1023</ele>
        <time>2022-08-10T09:49:42Z</time>
      </trkpt>
      <trkpt lat="46.83166" lon="6.24044">
        <ele>1021</ele>
        <time>2022-08-10T09:49:51Z</time>
      </trkpt>
      <trkpt lat="46.83119" lon="6.24026">
        <ele>1017</ele>
        <time>2022-08-10T09:50:03Z</time>
      </trkpt>
      <trkpt lat="46.83112" lon="6.2402">
        <ele>1016</ele>
        <time>2022-08-10T09:50:04Z</time>
      </trkpt>
      <trkpt lat="46.83157" lon="6.23949">
        <ele>1020</ele>
        <time>2022-08-10T09:50:20Z</time>
      </trkpt>
      <trkpt lat="46.83182" lon="6.23923">
        <ele>1022</ele>
        <time>2022-08-10T09:50:27Z</time>
      </trkpt>
      <trkpt lat="46.83194" lon="6.2392">
        <ele>1022</ele>
        <time>2022-08-10T09:50:30Z</time>
      </trkpt>
      <trkpt lat="46.83216" lon="6.23931">
        <ele>1023</ele>
        <time>2022-08-10T09:50:35Z</time>
      </trkpt>
      <trkpt lat="46.83231" lon="6.23934">
        <ele>1023</ele>
        <time>2022-08-10T09:50:39Z</time>
      </trkpt>
      <trkpt lat="46.8324" lon="6.23928">
        <ele>1024</ele>
        <time>2022-08-10T09:50:41Z</time>
      </trkpt>
      <trkpt lat="46.83248" lon="6.23905">
        <ele>1024</ele>
        <time>2022-08-10T09:50:45Z</time>
      </trkpt>
      <trkpt lat="46.83245" lon="6.23858">
        <ele>1023</ele>
        <time>2022-08-10T09:50:53Z</time>
      </trkpt>
      <trkpt lat="46.83233" lon="6.23817">
        <ele>1023</ele>
        <time>2022-08-10T09:51:00Z</time>
      </trkpt>
      <trkpt lat="46.83214" lon="6.23784">
        <ele>1022</ele>
        <time>2022-08-10T09:51:07Z</time>
      </trkpt>
      <trkpt lat="46.83206" lon="6.23762">
        <ele>1022</ele>
        <time>2022-08-10T09:51:11Z</time>
      </trkpt>
      <trkpt lat="46.8319" lon="6.23745">
        <ele>1022</ele>
        <time>2022-08-10T09:51:15Z</time>
      </trkpt>
      <trkpt lat="46.83192" lon="6.23725">
        <ele>1023</ele>
        <time>2022-08-10T09:51:19Z</time>
      </trkpt>
      <trkpt lat="46.83166" lon="6.23676">
        <ele>1023</ele>
        <time>2022-08-10T09:51:29Z</time>
      </trkpt>
      <trkpt lat="46.83149" lon="6.23616">
        <ele>1020</ele>
        <time>2022-08-10T09:51:39Z</time>
      </trkpt>
      <trkpt lat="46.83132" lon="6.23594">
        <ele>1018</ele>
        <time>2022-08-10T09:51:44Z</time>
      </trkpt>
      <trkpt lat="46.83123" lon="6.23552">
        <ele>1017</ele>
        <time>2022-08-10T09:51:51Z</time>
      </trkpt>
      <trkpt lat="46.83109" lon="6.23517">
        <ele>1016</ele>
        <time>2022-08-10T09:51:58Z</time>
      </trkpt>
      <trkpt lat="46.83104" lon="6.23486">
        <ele>1016</ele>
        <time>2022-08-10T09:52:03Z</time>
      </trkpt>
      <trkpt lat="46.83088" lon="6.2346">
        <ele>1015</ele>
        <time>2022-08-10T09:52:08Z</time>
      </trkpt>
      <trkpt lat="46.83079" lon="6.23432">
        <ele>1015</ele>
        <time>2022-08-10T09:52:13Z</time>
      </trkpt>
      <trkpt lat="46.83061" lon="6.234">
        <ele>1014</ele>
        <time>2022-08-10T09:52:20Z</time>
      </trkpt>
      <trkpt lat="46.83027" lon="6.23369">
        <ele>1011</ele>
        <time>2022-08-10T09:52:29Z</time>
      </trkpt>
      <trkpt lat="46.83009" lon="6.2335">
        <ele>1010</ele>
        <time>2022-08-10T09:52:35Z</time>
      </trkpt>
      <trkpt lat="46.83006" lon="6.23342">
        <ele>1010</ele>
        <time>2022-08-10T09:52:36Z</time>
      </trkpt>
      <trkpt lat="46.83016" lon="6.23327">
        <ele>1010</ele>
        <time>2022-08-10T09:52:39Z</time>
      </trkpt>
      <trkpt lat="46.83033" lon="6.23326">
        <ele>1011</ele>
        <time>2022-08-10T09:52:43Z</time>
      </trkpt>
      <trkpt lat="46.83049" lon="6.23317">
        <ele>1012</ele>
        <time>2022-08-10T09:52:47Z</time>
      </trkpt>
      <trkpt lat="46.83081" lon="6.23278">
        <ele>1015</ele>
        <time>2022-08-10T09:52:57Z</time>
      </trkpt>
      <trkpt lat="46.83116" lon="6.23208">
        <ele>1020</ele>
        <time>2022-08-10T09:53:11Z</time>
      </trkpt>
      <trkpt lat="46.83152" lon="6.23158">
        <ele>1026</ele>
        <time>2022-08-10T09:53:23Z</time>
      </trkpt>
      <trkpt lat="46.83172" lon="6.23108">
        <ele>1029</ele>
        <time>2022-08-10T09:53:32Z</time>
      </trkpt>
      <trkpt lat="46.83201" lon="6.2306">
        <ele>1032</ele>
        <time>2022-08-10T09:53:42Z</time>
      </trkpt>
      <trkpt lat="46.83221" lon="6.22986">
        <ele>1035</ele>
        <time>2022-08-10T09:53:55Z</time>
      </trkpt>
      <trkpt lat="46.83215" lon="6.22944">
        <ele>1037</ele>
        <time>2022-08-10T09:54:02Z</time>
      </trkpt>
      <trkpt lat="46.83195" lon="6.2291">
        <ele>1036</ele>
        <time>2022-08-10T09:54:09Z</time>
      </trkpt>
      <trkpt lat="46.83183" lon="6.22878">
        <ele>1037</ele>
        <time>2022-08-10T09:54:15Z</time>
      </trkpt>
      <trkpt lat="46.83175" lon="6.22831">
        <ele>1039</ele>
        <time>2022-08-10T09:54:22Z</time>
      </trkpt>
      <trkpt lat="46.83154" lon="6.22763">
        <ele>1041</ele>
        <time>2022-08-10T09:54:34Z</time>
      </trkpt>
      <trkpt lat="46.8313" lon="6.22723">
        <ele>1040</ele>
        <time>2022-08-10T09:54:43Z</time>
      </trkpt>
      <trkpt lat="46.83122" lon="6.2269">
        <ele>1040</ele>
        <time>2022-08-10T09:54:48Z</time>
      </trkpt>
      <trkpt lat="46.83105" lon="6.22668">
        <ele>1037</ele>
        <time>2022-08-10T09:54:54Z</time>
      </trkpt>
      <trkpt lat="46.83097" lon="6.22623">
        <ele>1038</ele>
        <time>2022-08-10T09:55:01Z</time>
      </trkpt>
      <trkpt lat="46.83098" lon="6.22605">
        <ele>1039</ele>
        <time>2022-08-10T09:55:04Z</time>
      </trkpt>
      <trkpt lat="46.83102" lon="6.22598">
        <ele>1040</ele>
        <time>2022-08-10T09:55:05Z</time>
      </trkpt>
      <trkpt lat="46.83106" lon="6.22596">
        <ele>1042</ele>
        <time>2022-08-10T09:55:06Z</time>
      </trkpt>
      <trkpt lat="46.83126" lon="6.22608">
        <ele>1047</ele>
        <time>2022-08-10T09:55:11Z</time>
      </trkpt>
      <trkpt lat="46.83143" lon="6.22602">
        <ele>1052</ele>
        <time>2022-08-10T09:55:16Z</time>
      </trkpt>
      <trkpt lat="46.83177" lon="6.22532">
        <ele>1056</ele>
        <time>2022-08-10T09:55:29Z</time>
      </trkpt>
      <trkpt lat="46.83187" lon="6.22519">
        <ele>1055</ele>
        <time>2022-08-10T09:55:32Z</time>
      </trkpt>
      <trkpt lat="46.83197" lon="6.22515">
        <ele>1055</ele>
        <time>2022-08-10T09:55:35Z</time>
      </trkpt>
      <trkpt lat="46.83211" lon="6.22519">
        <ele>1056</ele>
        <time>2022-08-10T09:55:38Z</time>
      </trkpt>
      <trkpt lat="46.83271" lon="6.22609">
        <ele>1065</ele>
        <time>2022-08-10T09:55:58Z</time>
      </trkpt>
      <trkpt lat="46.83297" lon="6.22657">
        <ele>1064</ele>
        <time>2022-08-10T09:56:08Z</time>
      </trkpt>
      <trkpt lat="46.83328" lon="6.22697">
        <ele>1064</ele>
        <time>2022-08-10T09:56:18Z</time>
      </trkpt>
      <trkpt lat="46.83353" lon="6.22747">
        <ele>1065</ele>
        <time>2022-08-10T09:56:28Z</time>
      </trkpt>
      <trkpt lat="46.83387" lon="6.22789">
        <ele>1066</ele>
        <time>2022-08-10T09:56:38Z</time>
      </trkpt>
      <trkpt lat="46.83395" lon="6.22812">
        <ele>1068</ele>
        <time>2022-08-10T09:56:42Z</time>
      </trkpt>
      <trkpt lat="46.83449" lon="6.22893">
        <ele>1069</ele>
        <time>2022-08-10T09:57:00Z</time>
      </trkpt>
      <trkpt lat="46.83455" lon="6.22906">
        <ele>1069</ele>
        <time>2022-08-10T09:57:03Z</time>
      </trkpt>
      <trkpt lat="46.83455" lon="6.22926">
        <ele>1070</ele>
        <time>2022-08-10T09:57:06Z</time>
      </trkpt>
      <trkpt lat="46.83443" lon="6.22954">
        <ele>1069</ele>
        <time>2022-08-10T09:57:11Z</time>
      </trkpt>
      <trkpt lat="46.83454" lon="6.22988">
        <ele>1069</ele>
        <time>2022-08-10T09:57:17Z</time>
      </trkpt>
      <trkpt lat="46.83481" lon="6.23024">
        <ele>1070</ele>
        <time>2022-08-10T09:57:26Z</time>
      </trkpt>
      <trkpt lat="46.8353" lon="6.23044">
        <ele>1072</ele>
        <time>2022-08-10T09:57:37Z</time>
      </trkpt>
      <trkpt lat="46.83549" lon="6.23072">
        <ele>1075</ele>
        <time>2022-08-10T09:57:44Z</time>
      </trkpt>
      <trkpt lat="46.83557" lon="6.23098">
        <ele>1077</ele>
        <time>2022-08-10T09:57:48Z</time>
      </trkpt>
      <trkpt lat="46.83567" lon="6.23115">
        <ele>1080</ele>
        <time>2022-08-10T09:57:52Z</time>
      </trkpt>
      <trkpt lat="46.83594" lon="6.23138">
        <ele>1084</ele>
        <time>2022-08-10T09:57:59Z</time>
      </trkpt>
      <trkpt lat="46.83601" lon="6.23151">
        <ele>1086</ele>
        <time>2022-08-10T09:58:02Z</time>
      </trkpt>
      <trkpt lat="46.83612" lon="6.23107">
        <ele>1081</ele>
        <time>2022-08-10T09:58:09Z</time>
      </trkpt>
      <trkpt lat="46.83589" lon="6.23064">
        <ele>1076</ele>
        <time>2022-08-10T09:58:18Z</time>
      </trkpt>
      <trkpt lat="46.83576" lon="6.23029">
        <ele>1072</ele>
        <time>2022-08-10T09:58:24Z</time>
      </trkpt>
      <trkpt lat="46.83574" lon="6.22994">
        <ele>1068</ele>
        <time>2022-08-10T09:58:30Z</time>
      </trkpt>
      <trkpt lat="46.83586" lon="6.22968">
        <ele>1064</ele>
        <time>2022-08-10T09:58:35Z</time>
      </trkpt>
      <trkpt lat="46.83637" lon="6.22935">
        <ele>1050</ele>
        <time>2022-08-10T09:58:48Z</time>
      </trkpt>
      <trkpt lat="46.83645" lon="6.22926">
        <ele>1047</ele>
        <time>2022-08-10T09:58:50Z</time>
      </trkpt>
      <trkpt lat="46.83692" lon="6.22818">
        <ele>1033</ele>
        <time>2022-08-10T09:59:11Z</time>
      </trkpt>
      <trkpt lat="46.837" lon="6.22813">
        <ele>1033</ele>
        <time>2022-08-10T09:59:13Z</time>
      </trkpt>
      <trkpt lat="46.83709" lon="6.22815">
        <ele>1032</ele>
        <time>2022-08-10T09:59:15Z</time>
      </trkpt>
      <trkpt lat="46.83726" lon="6.22835">
        <ele>1031</ele>
        <time>2022-08-10T09:59:20Z</time>
      </trkpt>
      <trkpt lat="46.83719" lon="6.2278">
        <ele>1031</ele>
        <time>2022-08-10T09:59:29Z</time>
      </trkpt>
      <trkpt lat="46.83703" lon="6.22732">
        <ele>1029</ele>
        <time>2022-08-10T09:59:38Z</time>
      </trkpt>
      <trkpt lat="46.83676" lon="6.227">
        <ele>1029</ele>
        <time>2022-08-10T09:59:46Z</time>
      </trkpt>
      <trkpt lat="46.83636" lon="6.22666">
        <ele>1027</ele>
        <time>2022-08-10T09:59:57Z</time>
      </trkpt>
      <trkpt lat="46.83602" lon="6.22629">
        <ele>1027</ele>
        <time>2022-08-10T10:00:06Z</time>
      </trkpt>
      <trkpt lat="46.83552" lon="6.22589">
        <ele>1027</ele>
        <time>2022-08-10T10:00:20Z</time>
      </trkpt>
      <trkpt lat="46.83496" lon="6.22563">
        <ele>1029</ele>
        <time>2022-08-10T10:00:33Z</time>
      </trkpt>
      <trkpt lat="46.83477" lon="6.2254">
        <ele>1033</ele>
        <time>2022-08-10T10:00:39Z</time>
      </trkpt>
      <trkpt lat="46.83471" lon="6.22523">
        <ele>1035</ele>
        <time>2022-08-10T10:00:42Z</time>
      </trkpt>
      <trkpt lat="46.83485" lon="6.22482">
        <ele>1035</ele>
        <time>2022-08-10T10:00:50Z</time>
      </trkpt>
      <trkpt lat="46.83511" lon="6.22433">
        <ele>1031</ele>
        <time>2022-08-10T10:01:00Z</time>
      </trkpt>
      <trkpt lat="46.83576" lon="6.22359">
        <ele>1007</ele>
        <time>2022-08-10T10:01:19Z</time>
      </trkpt>
      <trkpt lat="46.83607" lon="6.2231">
        <ele>993</ele>
        <time>2022-08-10T10:01:29Z</time>
      </trkpt>
      <trkpt lat="46.83648" lon="6.22294">
        <ele>984</ele>
        <time>2022-08-10T10:01:39Z</time>
      </trkpt>
      <trkpt lat="46.83671" lon="6.22312">
        <ele>981</ele>
        <time>2022-08-10T10:01:45Z</time>
      </trkpt>
      <trkpt lat="46.8369" lon="6.22339">
        <ele>980</ele>
        <time>2022-08-10T10:01:52Z</time>
      </trkpt>
      <trkpt lat="46.837" lon="6.22344">
        <ele>979</ele>
        <time>2022-08-10T10:01:54Z</time>
      </trkpt>
      <trkpt lat="46.83725" lon="6.22341">
        <ele>974</ele>
        <time>2022-08-10T10:02:00Z</time>
      </trkpt>
      <trkpt lat="46.83746" lon="6.22332">
        <ele>969</ele>
        <time>2022-08-10T10:02:05Z</time>
      </trkpt>
      <trkpt lat="46.83798" lon="6.22325">
        <ele>960</ele>
        <time>2022-08-10T10:02:17Z</time>
      </trkpt>
      <trkpt lat="46.83851" lon="6.22304">
        <ele>949</ele>
        <time>2022-08-10T10:02:30Z</time>
      </trkpt>
      <trkpt lat="46.83871" lon="6.22303">
        <ele>945</ele>
        <time>2022-08-10T10:02:35Z</time>
      </trkpt>
      <trkpt lat="46.83917" lon="6.22311">
        <ele>938</ele>
        <time>2022-08-10T10:02:46Z</time>
      </trkpt>
      <trkpt lat="46.83946" lon="6.22323">
        <ele>932</ele>
        <time>2022-08-10T10:02:53Z</time>
      </trkpt>
      <trkpt lat="46.83969" lon="6.2234">
        <ele>928</ele>
        <time>2022-08-10T10:02:59Z</time>
      </trkpt>
      <trkpt lat="46.84051" lon="6.22453">
        <ele>920</ele>
        <time>2022-08-10T10:03:25Z</time>
      </trkpt>
      <trkpt lat="46.84081" lon="6.22481">
        <ele>913</ele>
        <time>2022-08-10T10:03:33Z</time>
      </trkpt>
      <trkpt lat="46.84097" lon="6.22488">
        <ele>911</ele>
        <time>2022-08-10T10:03:37Z</time>
      </trkpt>
      <trkpt lat="46.84119" lon="6.22481">
        <ele>907</ele>
        <time>2022-08-10T10:03:42Z</time>
      </trkpt>
      <trkpt lat="46.84137" lon="6.22469">
        <ele>902</ele>
        <time>2022-08-10T10:03:47Z</time>
      </trkpt>
      <trkpt lat="46.84184" lon="6.22424">
        <ele>887</ele>
        <time>2022-08-10T10:04:00Z</time>
      </trkpt>
      <trkpt lat="46.84228" lon="6.22396">
        <ele>883</ele>
        <time>2022-08-10T10:04:11Z</time>
      </trkpt>
      <trkpt lat="46.84254" lon="6.2239">
        <ele>882</ele>
        <time>2022-08-10T10:04:17Z</time>
      </trkpt>
      <trkpt lat="46.84332" lon="6.22394">
        <ele>879</ele>
        <time>2022-08-10T10:04:36Z</time>
      </trkpt>
      <trkpt lat="46.8437" lon="6.22385">
        <ele>878</ele>
        <time>2022-08-10T10:04:45Z</time>
      </trkpt>
      <trkpt lat="46.84389" lon="6.22394">
        <ele>878</ele>
        <time>2022-08-10T10:04:49Z</time>
      </trkpt>
      <trkpt lat="46.84411" lon="6.22421">
        <ele>880</ele>
        <time>2022-08-10T10:04:56Z</time>
      </trkpt>
      <trkpt lat="46.84438" lon="6.22477">
        <ele>883</ele>
        <time>2022-08-10T10:05:07Z</time>
      </trkpt>
      <trkpt lat="46.8447" lon="6.22522">
        <ele>884</ele>
        <time>2022-08-10T10:05:17Z</time>
      </trkpt>
      <trkpt lat="46.84526" lon="6.22589">
        <ele>885</ele>
        <time>2022-08-10T10:05:34Z</time>
      </trkpt>
      <trkpt lat="46.84535" lon="6.22608">
        <ele>885</ele>
        <time>2022-08-10T10:05:38Z</time>
      </trkpt>
      <trkpt lat="46.84551" lon="6.22625">
        <ele>884</ele>
        <time>2022-08-10T10:05:43Z</time>
      </trkpt>
      <trkpt lat="46.84565" lon="6.22629">
        <ele>883</ele>
        <time>2022-08-10T10:05:46Z</time>
      </trkpt>
      <trkpt lat="46.84577" lon="6.22627">
        <ele>882</ele>
        <time>2022-08-10T10:05:49Z</time>
      </trkpt>
      <trkpt lat="46.84599" lon="6.226">
        <ele>878</ele>
        <time>2022-08-10T10:05:55Z</time>
      </trkpt>
      <trkpt lat="46.84623" lon="6.22585">
        <ele>876</ele>
        <time>2022-08-10T10:06:02Z</time>
      </trkpt>
      <trkpt lat="46.84645" lon="6.22548">
        <ele>873</ele>
        <time>2022-08-10T10:06:09Z</time>
      </trkpt>
      <trkpt lat="46.84719" lon="6.22502">
        <ele>867</ele>
        <time>2022-08-10T10:06:28Z</time>
      </trkpt>
      <trkpt lat="46.84781" lon="6.2245">
        <ele>861</ele>
        <time>2022-08-10T10:06:45Z</time>
      </trkpt>
      <trkpt lat="46.84852" lon="6.22421">
        <ele>852</ele>
        <time>2022-08-10T10:07:02Z</time>
      </trkpt>
      <trkpt lat="46.84899" lon="6.22411">
        <ele>844</ele>
        <time>2022-08-10T10:07:13Z</time>
      </trkpt>
      <trkpt lat="46.84891" lon="6.22445">
        <ele>847</ele>
        <time>2022-08-10T10:07:19Z</time>
      </trkpt>
      <trkpt lat="46.84939" lon="6.22519">
        <ele>848</ele>
        <time>2022-08-10T10:07:35Z</time>
      </trkpt>
      <trkpt lat="46.84951" lon="6.2257">
        <ele>851</ele>
        <time>2022-08-10T10:07:44Z</time>
      </trkpt>
      <trkpt lat="46.84962" lon="6.22596">
        <ele>851</ele>
        <time>2022-08-10T10:07:49Z</time>
      </trkpt>
      <trkpt lat="46.84976" lon="6.22668">
        <ele>853</ele>
        <time>2022-08-10T10:08:01Z</time>
      </trkpt>
      <trkpt lat="46.8495" lon="6.22736">
        <ele>860</ele>
        <time>2022-08-10T10:08:13Z</time>
      </trkpt>
      <trkpt lat="46.8492" lon="6.22795">
        <ele>866</ele>
        <time>2022-08-10T10:08:25Z</time>
      </trkpt>
      <trkpt lat="46.84912" lon="6.2285">
        <ele>870</ele>
        <time>2022-08-10T10:08:34Z</time>
      </trkpt>
      <trkpt lat="46.84882" lon="6.22892">
        <ele>873</ele>
        <time>2022-08-10T10:08:44Z</time>
      </trkpt>
      <trkpt lat="46.84887" lon="6.22959">
        <ele>875</ele>
        <time>2022-08-10T10:08:54Z</time>
      </trkpt>
      <trkpt lat="46.84909" lon="6.23015">
        <ele>874</ele>
        <time>2022-08-10T10:09:05Z</time>
      </trkpt>
      <trkpt lat="46.84963" lon="6.23096">
        <ele>869</ele>
        <time>2022-08-10T10:09:23Z</time>
      </trkpt>
      <trkpt lat="46.84989" lon="6.23119">
        <ele>867</ele>
        <time>2022-08-10T10:09:30Z</time>
      </trkpt>
      <trkpt lat="46.85014" lon="6.23129">
        <ele>866</ele>
        <time>2022-08-10T10:09:36Z</time>
      </trkpt>
      <trkpt lat="46.85032" lon="6.23143">
        <ele>866</ele>
        <time>2022-08-10T10:09:41Z</time>
      </trkpt>
      <trkpt lat="46.85054" lon="6.23215">
        <ele>867</ele>
        <time>2022-08-10T10:09:53Z</time>
      </trkpt>
      <trkpt lat="46.8506" lon="6.23259">
        <ele>868</ele>
        <time>2022-08-10T10:10:00Z</time>
      </trkpt>
      <trkpt lat="46.85057" lon="6.23316">
        <ele>869</ele>
        <time>2022-08-10T10:10:09Z</time>
      </trkpt>
      <trkpt lat="46.85082" lon="6.23375">
        <ele>870</ele>
        <time>2022-08-10T10:10:21Z</time>
      </trkpt>
      <trkpt lat="46.85086" lon="6.23407">
        <ele>871</ele>
        <time>2022-08-10T10:10:26Z</time>
      </trkpt>
      <trkpt lat="46.85092" lon="6.23422">
        <ele>872</ele>
        <time>2022-08-10T10:10:29Z</time>
      </trkpt>
      <trkpt lat="46.85102" lon="6.23432">
        <ele>872</ele>
        <time>2022-08-10T10:10:31Z</time>
      </trkpt>
      <trkpt lat="46.85114" lon="6.23425">
        <ele>871</ele>
        <time>2022-08-10T10:10:34Z</time>
      </trkpt>
      <trkpt lat="46.85157" lon="6.23415">
        <ele>868</ele>
        <time>2022-08-10T10:10:45Z</time>
      </trkpt>
      <trkpt lat="46.85197" lon="6.23389">
        <ele>865</ele>
        <time>2022-08-10T10:10:55Z</time>
      </trkpt>
      <trkpt lat="46.85207" lon="6.23367">
        <ele>864</ele>
        <time>2022-08-10T10:10:59Z</time>
      </trkpt>
      <trkpt lat="46.85233" lon="6.23343">
        <ele>862</ele>
        <time>2022-08-10T10:11:06Z</time>
      </trkpt>
      <trkpt lat="46.85251" lon="6.23332">
        <ele>861</ele>
        <time>2022-08-10T10:11:11Z</time>
      </trkpt>
      <trkpt lat="46.85309" lon="6.23247">
        <ele>854</ele>
        <time>2022-08-10T10:11:30Z</time>
      </trkpt>
      <trkpt lat="46.85323" lon="6.23246">
        <ele>854</ele>
        <time>2022-08-10T10:11:33Z</time>
      </trkpt>
      <trkpt lat="46.85359" lon="6.23294">
        <ele>854</ele>
        <time>2022-08-10T10:11:45Z</time>
      </trkpt>
      <trkpt lat="46.85378" lon="6.23331">
        <ele>855</ele>
        <time>2022-08-10T10:11:52Z</time>
      </trkpt>
      <trkpt lat="46.85398" lon="6.2342">
        <ele>858</ele>
        <time>2022-08-10T10:12:07Z</time>
      </trkpt>
      <trkpt lat="46.85384" lon="6.23503">
        <ele>865</ele>
        <time>2022-08-10T10:12:21Z</time>
      </trkpt>
      <trkpt lat="46.85362" lon="6.23543">
        <ele>870</ele>
        <time>2022-08-10T10:12:29Z</time>
      </trkpt>
      <trkpt lat="46.85363" lon="6.23588">
        <ele>873</ele>
        <time>2022-08-10T10:12:36Z</time>
      </trkpt>
      <trkpt lat="46.85352" lon="6.23618">
        <ele>876</ele>
        <time>2022-08-10T10:12:41Z</time>
      </trkpt>
      <trkpt lat="46.85347" lon="6.23677">
        <ele>880</ele>
        <time>2022-08-10T10:12:51Z</time>
      </trkpt>
      <trkpt lat="46.85352" lon="6.2371">
        <ele>882</ele>
        <time>2022-08-10T10:12:56Z</time>
      </trkpt>
      <trkpt lat="46.85349" lon="6.23724">
        <ele>883</ele>
        <time>2022-08-10T10:12:59Z</time>
      </trkpt>
      <trkpt lat="46.85353" lon="6.23755">
        <ele>884</ele>
        <time>2022-08-10T10:13:04Z</time>
      </trkpt>
      <trkpt lat="46.85352" lon="6.23792">
        <ele>888</ele>
        <time>2022-08-10T10:13:10Z</time>
      </trkpt>
      <trkpt lat="46.85354" lon="6.238">
        <ele>889</ele>
        <time>2022-08-10T10:13:11Z</time>
      </trkpt>
      <trkpt lat="46.85358" lon="6.23799">
        <ele>888</ele>
        <time>2022-08-10T10:13:12Z</time>
      </trkpt>
      <trkpt lat="46.85361" lon="6.23836">
        <ele>892</ele>
        <time>2022-08-10T10:13:18Z</time>
      </trkpt>
      <trkpt lat="46.85372" lon="6.23856">
        <ele>893</ele>
        <time>2022-08-10T10:13:22Z</time>
      </trkpt>
      <trkpt lat="46.85374" lon="6.23874">
        <ele>894</ele>
        <time>2022-08-10T10:13:25Z</time>
      </trkpt>
      <trkpt lat="46.8538" lon="6.23877">
        <ele>894</ele>
        <time>2022-08-10T10:13:26Z</time>
      </trkpt>
      <trkpt lat="46.85382" lon="6.23886">
        <ele>894</ele>
        <time>2022-08-10T10:13:28Z</time>
      </trkpt>
      <trkpt lat="46.85386" lon="6.2389">
        <ele>894</ele>
        <time>2022-08-10T10:13:29Z</time>
      </trkpt>
      <trkpt lat="46.8539" lon="6.23889">
        <ele>894</ele>
        <time>2022-08-10T10:13:30Z</time>
      </trkpt>
      <trkpt lat="46.85435" lon="6.23914">
        <ele>893</ele>
        <time>2022-08-10T10:13:41Z</time>
      </trkpt>
      <trkpt lat="46.85452" lon="6.23931">
        <ele>892</ele>
        <time>2022-08-10T10:13:46Z</time>
      </trkpt>
      <trkpt lat="46.85461" lon="6.23935">
        <ele>892</ele>
        <time>2022-08-10T10:13:48Z</time>
      </trkpt>
      <trkpt lat="46.8547" lon="6.23958">
        <ele>892</ele>
        <time>2022-08-10T10:13:52Z</time>
      </trkpt>
      <trkpt lat="46.85484" lon="6.23976">
        <ele>892</ele>
        <time>2022-08-10T10:13:57Z</time>
      </trkpt>
      <trkpt lat="46.85517" lon="6.24043">
        <ele>892</ele>
        <time>2022-08-10T10:14:10Z</time>
      </trkpt>
      <trkpt lat="46.85525" lon="6.24047">
        <ele>892</ele>
        <time>2022-08-10T10:14:12Z</time>
      </trkpt>
      <trkpt lat="46.85575" lon="6.24049">
        <ele>888</ele>
        <time>2022-08-10T10:14:24Z</time>
      </trkpt>
      <trkpt lat="46.85587" lon="6.2406">
        <ele>887</ele>
        <time>2022-08-10T10:14:27Z</time>
      </trkpt>
      <trkpt lat="46.85615" lon="6.24118">
        <ele>885</ele>
        <time>2022-08-10T10:14:38Z</time>
      </trkpt>
      <trkpt lat="46.85644" lon="6.2414">
        <ele>881</ele>
        <time>2022-08-10T10:14:46Z</time>
      </trkpt>
      <trkpt lat="46.85683" lon="6.2416">
        <ele>876</ele>
        <time>2022-08-10T10:14:55Z</time>
      </trkpt>
      <trkpt lat="46.85695" lon="6.24161">
        <ele>874</ele>
        <time>2022-08-10T10:14:58Z</time>
      </trkpt>
      <trkpt lat="46.85709" lon="6.24156">
        <ele>872</ele>
        <time>2022-08-10T10:15:02Z</time>
      </trkpt>
      <trkpt lat="46.8575" lon="6.24124">
        <ele>862</ele>
        <time>2022-08-10T10:15:13Z</time>
      </trkpt>
      <trkpt lat="46.85762" lon="6.24122">
        <ele>861</ele>
        <time>2022-08-10T10:15:15Z</time>
      </trkpt>
      <trkpt lat="46.85769" lon="6.24127">
        <ele>862</ele>
        <time>2022-08-10T10:15:17Z</time>
      </trkpt>
      <trkpt lat="46.85777" lon="6.24141">
        <ele>863</ele>
        <time>2022-08-10T10:15:20Z</time>
      </trkpt>
      <trkpt lat="46.85782" lon="6.24168">
        <ele>865</ele>
        <time>2022-08-10T10:15:25Z</time>
      </trkpt>
      <trkpt lat="46.85815" lon="6.24213">
        <ele>867</ele>
        <time>2022-08-10T10:15:35Z</time>
      </trkpt>
      <trkpt lat="46.85842" lon="6.2424">
        <ele>868</ele>
        <time>2022-08-10T10:15:43Z</time>
      </trkpt>
      <trkpt lat="46.85891" lon="6.24322">
        <ele>870</ele>
        <time>2022-08-10T10:16:00Z</time>
      </trkpt>
      <trkpt lat="46.85927" lon="6.24361">
        <ele>867</ele>
        <time>2022-08-10T10:16:11Z</time>
      </trkpt>
      <trkpt lat="46.86002" lon="6.24455">
        <ele>862</ele>
        <time>2022-08-10T10:16:34Z</time>
      </trkpt>
      <trkpt lat="46.86014" lon="6.24482">
        <ele>861</ele>
        <time>2022-08-10T10:16:39Z</time>
      </trkpt>
      <trkpt lat="46.86028" lon="6.24525">
        <ele>860</ele>
        <time>2022-08-10T10:16:46Z</time>
      </trkpt>
      <trkpt lat="46.86024" lon="6.24542">
        <ele>859</ele>
        <time>2022-08-10T10:16:49Z</time>
      </trkpt>
      <trkpt lat="46.86043" lon="6.24553">
        <ele>859</ele>
        <time>2022-08-10T10:16:54Z</time>
      </trkpt>
      <trkpt lat="46.86048" lon="6.2456">
        <ele>859</ele>
        <time>2022-08-10T10:16:56Z</time>
      </trkpt>
      <trkpt lat="46.86049" lon="6.2458">
        <ele>860</ele>
        <time>2022-08-10T10:16:59Z</time>
      </trkpt>
      <trkpt lat="46.86082" lon="6.24638">
        <ele>864</ele>
        <time>2022-08-10T10:17:11Z</time>
      </trkpt>
      <trkpt lat="46.86084" lon="6.24674">
        <ele>866</ele>
        <time>2022-08-10T10:17:17Z</time>
      </trkpt>
      <trkpt lat="46.8609" lon="6.24685">
        <ele>865</ele>
        <time>2022-08-10T10:17:19Z</time>
      </trkpt>
      <trkpt lat="46.86112" lon="6.24695">
        <ele>863</ele>
        <time>2022-08-10T10:17:24Z</time>
      </trkpt>
      <trkpt lat="46.86134" lon="6.24675">
        <ele>862</ele>
        <time>2022-08-10T10:17:30Z</time>
      </trkpt>
      <trkpt lat="46.86153" lon="6.24672">
        <ele>860</ele>
        <time>2022-08-10T10:17:35Z</time>
      </trkpt>
      <trkpt lat="46.86174" lon="6.24684">
        <ele>858</ele>
        <time>2022-08-10T10:17:40Z</time>
      </trkpt>
      <trkpt lat="46.86206" lon="6.24694">
        <ele>853</ele>
        <time>2022-08-10T10:17:48Z</time>
      </trkpt>
      <trkpt lat="46.86222" lon="6.24695">
        <ele>850</ele>
        <time>2022-08-10T10:17:51Z</time>
      </trkpt>
      <trkpt lat="46.86246" lon="6.2469">
        <ele>846</ele>
        <time>2022-08-10T10:17:57Z</time>
      </trkpt>
      <trkpt lat="46.86251" lon="6.24696">
        <ele>846</ele>
        <time>2022-08-10T10:17:59Z</time>
      </trkpt>
      <trkpt lat="46.86232" lon="6.24746">
        <ele>848</ele>
        <time>2022-08-10T10:18:08Z</time>
      </trkpt>
      <trkpt lat="46.86238" lon="6.24762">
        <ele>847</ele>
        <time>2022-08-10T10:18:11Z</time>
      </trkpt>
      <trkpt lat="46.86254" lon="6.24778">
        <ele>845</ele>
        <time>2022-08-10T10:18:15Z</time>
      </trkpt>
      <trkpt lat="46.86252" lon="6.24788">
        <ele>845</ele>
        <time>2022-08-10T10:18:17Z</time>
      </trkpt>
      <trkpt lat="46.86235" lon="6.24817">
        <ele>847</ele>
        <time>2022-08-10T10:18:23Z</time>
      </trkpt>
      <trkpt lat="46.86194" lon="6.24858">
        <ele>851</ele>
        <time>2022-08-10T10:18:35Z</time>
      </trkpt>
      <trkpt lat="46.86125" lon="6.24895">
        <ele>853</ele>
        <time>2022-08-10T10:18:52Z</time>
      </trkpt>
      <trkpt lat="46.86029" lon="6.25007">
        <ele>851</ele>
        <time>2022-08-10T10:19:20Z</time>
      </trkpt>
      <trkpt lat="46.85985" lon="6.25051">
        <ele>854</ele>
        <time>2022-08-10T10:19:33Z</time>
      </trkpt>
      <trkpt lat="46.85961" lon="6.25068">
        <ele>855</ele>
        <time>2022-08-10T10:19:39Z</time>
      </trkpt>
      <trkpt lat="46.85937" lon="6.25102">
        <ele>857</ele>
        <time>2022-08-10T10:19:47Z</time>
      </trkpt>
      <trkpt lat="46.8594" lon="6.25119">
        <ele>858</ele>
        <time>2022-08-10T10:19:50Z</time>
      </trkpt>
      <trkpt lat="46.85965" lon="6.25138">
        <ele>857</ele>
        <time>2022-08-10T10:19:56Z</time>
      </trkpt>
      <trkpt lat="46.85977" lon="6.25172">
        <ele>858</ele>
        <time>2022-08-10T10:20:02Z</time>
      </trkpt>
      <trkpt lat="46.85995" lon="6.25198">
        <ele>858</ele>
        <time>2022-08-10T10:20:08Z</time>
      </trkpt>
      <trkpt lat="46.86037" lon="6.25226">
        <ele>857</ele>
        <time>2022-08-10T10:20:19Z</time>
      </trkpt>
      <trkpt lat="46.86052" lon="6.25294">
        <ele>867</ele>
        <time>2022-08-10T10:20:30Z</time>
      </trkpt>
      <trkpt lat="46.86064" lon="6.25323">
        <ele>870</ele>
        <time>2022-08-10T10:20:36Z</time>
      </trkpt>
      <trkpt lat="46.86073" lon="6.25335">
        <ele>871</ele>
        <time>2022-08-10T10:20:39Z</time>
      </trkpt>
      <trkpt lat="46.86101" lon="6.25344">
        <ele>870</ele>
        <time>2022-08-10T10:20:45Z</time>
      </trkpt>
      <trkpt lat="46.86112" lon="6.25356">
        <ele>871</ele>
        <time>2022-08-10T10:20:49Z</time>
      </trkpt>
      <trkpt lat="46.86129" lon="6.25352">
        <ele>869</ele>
        <time>2022-08-10T10:20:53Z</time>
      </trkpt>
      <trkpt lat="46.86148" lon="6.25355">
        <ele>868</ele>
        <time>2022-08-10T10:20:57Z</time>
      </trkpt>
      <trkpt lat="46.86156" lon="6.2536">
        <ele>868</ele>
        <time>2022-08-10T10:20:59Z</time>
      </trkpt>
      <trkpt lat="46.86175" lon="6.25362">
        <ele>866</ele>
        <time>2022-08-10T10:21:04Z</time>
      </trkpt>
      <trkpt lat="46.86186" lon="6.2537">
        <ele>867</ele>
        <time>2022-08-10T10:21:06Z</time>
      </trkpt>
      <trkpt lat="46.8625" lon="6.25392">
        <ele>864</ele>
        <time>2022-08-10T10:21:22Z</time>
      </trkpt>
      <trkpt lat="46.86279" lon="6.25393">
        <ele>865</ele>
        <time>2022-08-10T10:21:29Z</time>
      </trkpt>
      <trkpt lat="46.86303" lon="6.254">
        <ele>866</ele>
        <time>2022-08-10T10:21:34Z</time>
      </trkpt>
      <trkpt lat="46.86347" lon="6.25428">
        <ele>868</ele>
        <time>2022-08-10T10:21:46Z</time>
      </trkpt>
      <trkpt lat="46.86362" lon="6.25432">
        <ele>868</ele>
        <time>2022-08-10T10:21:49Z</time>
      </trkpt>
      <trkpt lat="46.86389" lon="6.25427">
        <ele>868</ele>
        <time>2022-08-10T10:21:55Z</time>
      </trkpt>
      <trkpt lat="46.86412" lon="6.25431">
        <ele>868</ele>
        <time>2022-08-10T10:22:01Z</time>
      </trkpt>
      <trkpt lat="46.86422" lon="6.2544">
        <ele>868</ele>
        <time>2022-08-10T10:22:04Z</time>
      </trkpt>
      <trkpt lat="46.86438" lon="6.25483">
        <ele>867</ele>
        <time>2022-08-10T10:22:11Z</time>
      </trkpt>
      <trkpt lat="46.86438" lon="6.25495">
        <ele>868</ele>
        <time>2022-08-10T10:22:13Z</time>
      </trkpt>
      <trkpt lat="46.86446" lon="6.25495">
        <ele>867</ele>
        <time>2022-08-10T10:22:15Z</time>
      </trkpt>
      <trkpt lat="46.86454" lon="6.25501">
        <ele>866</ele>
        <time>2022-08-10T10:22:17Z</time>
      </trkpt>
      <trkpt lat="46.86472" lon="6.25507">
        <ele>864</ele>
        <time>2022-08-10T10:22:22Z</time>
      </trkpt>
      <trkpt lat="46.86491" lon="6.25493">
        <ele>862</ele>
        <time>2022-08-10T10:22:27Z</time>
      </trkpt>
      <trkpt lat="46.86502" lon="6.25492">
        <ele>861</ele>
        <time>2022-08-10T10:22:29Z</time>
      </trkpt>
      <trkpt lat="46.865" lon="6.25531">
        <ele>861</ele>
        <time>2022-08-10T10:22:35Z</time>
      </trkpt>
      <trkpt lat="46.86509" lon="6.25565">
        <ele>861</ele>
        <time>2022-08-10T10:22:41Z</time>
      </trkpt>
      <trkpt lat="46.86524" lon="6.25582">
        <ele>861</ele>
        <time>2022-08-10T10:22:46Z</time>
      </trkpt>
      <trkpt lat="46.86542" lon="6.25595">
        <ele>862</ele>
        <time>2022-08-10T10:22:50Z</time>
      </trkpt>
      <trkpt lat="46.86569" lon="6.25604">
        <ele>862</ele>
        <time>2022-08-10T10:22:57Z</time>
      </trkpt>
      <trkpt lat="46.86597" lon="6.25607">
        <ele>862</ele>
        <time>2022-08-10T10:23:03Z</time>
      </trkpt>
      <trkpt lat="46.86619" lon="6.25618">
        <ele>863</ele>
        <time>2022-08-10T10:23:09Z</time>
      </trkpt>
      <trkpt lat="46.86657" lon="6.25631">
        <ele>864</ele>
        <time>2022-08-10T10:23:18Z</time>
      </trkpt>
      <trkpt lat="46.86682" lon="6.25665">
        <ele>868</ele>
        <time>2022-08-10T10:23:26Z</time>
      </trkpt>
      <trkpt lat="46.86729" lon="6.2577">
        <ele>874</ele>
        <time>2022-08-10T10:23:46Z</time>
      </trkpt>
      <trkpt lat="46.86736" lon="6.25813">
        <ele>875</ele>
        <time>2022-08-10T10:23:53Z</time>
      </trkpt>
      <trkpt lat="46.86775" lon="6.25867">
        <ele>874</ele>
        <time>2022-08-10T10:24:05Z</time>
      </trkpt>
      <trkpt lat="46.86801" lon="6.25958">
        <ele>879</ele>
        <time>2022-08-10T10:24:21Z</time>
      </trkpt>
      <trkpt lat="46.86796" lon="6.26017">
        <ele>883</ele>
        <time>2022-08-10T10:24:31Z</time>
      </trkpt>
      <trkpt lat="46.86808" lon="6.26049">
        <ele>885</ele>
        <time>2022-08-10T10:24:37Z</time>
      </trkpt>
      <trkpt lat="46.86835" lon="6.26088">
        <ele>884</ele>
        <time>2022-08-10T10:24:45Z</time>
      </trkpt>
      <trkpt lat="46.86852" lon="6.26123">
        <ele>884</ele>
        <time>2022-08-10T10:24:52Z</time>
      </trkpt>
      <trkpt lat="46.86852" lon="6.26164">
        <ele>887</ele>
        <time>2022-08-10T10:24:59Z</time>
      </trkpt>
      <trkpt lat="46.8683" lon="6.26204">
        <ele>894</ele>
        <time>2022-08-10T10:25:07Z</time>
      </trkpt>
      <trkpt lat="46.86819" lon="6.26207">
        <ele>896</ele>
        <time>2022-08-10T10:25:10Z</time>
      </trkpt>
      <trkpt lat="46.86921" lon="6.26312">
        <ele>884</ele>
        <time>2022-08-10T10:25:39Z</time>
      </trkpt>
      <trkpt lat="46.86965" lon="6.26387">
        <ele>881</ele>
        <time>2022-08-10T10:25:55Z</time>
      </trkpt>
      <trkpt lat="46.87031" lon="6.26525">
        <ele>881</ele>
        <time>2022-08-10T10:26:21Z</time>
      </trkpt>
      <trkpt lat="46.87054" lon="6.26551">
        <ele>879</ele>
        <time>2022-08-10T10:26:28Z</time>
      </trkpt>
      <trkpt lat="46.87094" lon="6.26568">
        <ele>872</ele>
        <time>2022-08-10T10:26:38Z</time>
      </trkpt>
      <trkpt lat="46.8713" lon="6.26591">
        <ele>869</ele>
        <time>2022-08-10T10:26:47Z</time>
      </trkpt>
      <trkpt lat="46.87219" lon="6.26659">
        <ele>862</ele>
        <time>2022-08-10T10:27:11Z</time>
      </trkpt>
      <trkpt lat="46.87252" lon="6.26688">
        <ele>859</ele>
        <time>2022-08-10T10:27:20Z</time>
      </trkpt>
      <trkpt lat="46.87267" lon="6.26734">
        <ele>858</ele>
        <time>2022-08-10T10:27:28Z</time>
      </trkpt>
      <trkpt lat="46.8729" lon="6.26837">
        <ele>857</ele>
        <time>2022-08-10T10:27:45Z</time>
      </trkpt>
      <trkpt lat="46.87298" lon="6.26845">
        <ele>856</ele>
        <time>2022-08-10T10:27:47Z</time>
      </trkpt>
      <trkpt lat="46.87367" lon="6.26904">
        <ele>851</ele>
        <time>2022-08-10T10:28:06Z</time>
      </trkpt>
      <trkpt lat="46.87457" lon="6.26956">
        <ele>845</ele>
        <time>2022-08-10T10:28:29Z</time>
      </trkpt>
      <trkpt lat="46.87471" lon="6.26971">
        <ele>844</ele>
        <time>2022-08-10T10:28:33Z</time>
      </trkpt>
      <trkpt lat="46.87501" lon="6.27027">
        <ele>843</ele>
        <time>2022-08-10T10:28:44Z</time>
      </trkpt>
      <trkpt lat="46.87532" lon="6.2705">
        <ele>843</ele>
        <time>2022-08-10T10:28:52Z</time>
      </trkpt>
      <trkpt lat="46.87541" lon="6.27052">
        <ele>842</ele>
        <time>2022-08-10T10:28:54Z</time>
      </trkpt>
      <trkpt lat="46.87556" lon="6.27046">
        <ele>841</ele>
        <time>2022-08-10T10:28:58Z</time>
      </trkpt>
      <trkpt lat="46.87598" lon="6.26964">
        <ele>839</ele>
        <time>2022-08-10T10:29:14Z</time>
      </trkpt>
      <trkpt lat="46.87646" lon="6.26903">
        <ele>838</ele>
        <time>2022-08-10T10:29:29Z</time>
      </trkpt>
      <trkpt lat="46.87677" lon="6.26872">
        <ele>837</ele>
        <time>2022-08-10T10:29:38Z</time>
      </trkpt>
      <trkpt lat="46.87701" lon="6.26916">
        <ele>836</ele>
        <time>2022-08-10T10:29:47Z</time>
      </trkpt>
      <trkpt lat="46.87703" lon="6.26931">
        <ele>836</ele>
        <time>2022-08-10T10:29:49Z</time>
      </trkpt>
    </trkseg>
  </trk>
</gpx>